ZKJNE NZCH-NZPN
Flight info
| Callsign | ZKJNE |
|---|---|
| Flight time | N/A |
| Altitude | 5500 |
| Route | ODOWD DCT NZKI DCT SAMEN |
| Aircraft | C172/L-SFG/C |
Departure
| Time | 2026-05-07 19:53 |
|---|---|
| Airport | Christchurch International Airport (NZCH) |
Arrival
| Time | N/A |
|---|---|
| Airport | Picton Aerodrome (NZPN) |
| Time | Latitude | Longitude | Altitude | Speed | Heading |
|---|---|---|---|---|---|
| 2026-05-07 19:33 | -43.48254 | 172.53085 | 114 ft | 0 kts | 38° |
| 2026-05-07 19:42 | -43.48233 | 172.53136 | 114 ft | 9 kts | 86° |
| 2026-05-07 19:42 | -43.48240 | 172.53155 | 113 ft | 0 kts | 130° |
| 2026-05-07 19:44 | -43.48251 | 172.53171 | 112 ft | 6 kts | 128° |
| 2026-05-07 19:45 | -43.48256 | 172.53178 | 112 ft | 0 kts | 122° |
| 2026-05-07 19:45 | -43.48257 | 172.53181 | 112 ft | 0 kts | 103° |
| 2026-05-07 19:47 | -43.48258 | 172.53183 | 112 ft | 1 kts | 102° |
| 2026-05-07 19:47 | -43.48281 | 172.53207 | 111 ft | 9 kts | 171° |
| 2026-05-07 19:47 | -43.48343 | 172.53152 | 111 ft | 10 kts | 218° |
| 2026-05-07 19:47 | -43.48408 | 172.53078 | 112 ft | 14 kts | 219° |
| 2026-05-07 19:48 | -43.48478 | 172.52997 | 112 ft | 12 kts | 220° |
| 2026-05-07 19:48 | -43.48519 | 172.52949 | 112 ft | 0 kts | 211° |
| 2026-05-07 19:48 | -43.48520 | 172.52948 | 112 ft | 2 kts | 211° |
| 2026-05-07 19:48 | -43.48560 | 172.52982 | 111 ft | 1 kts | 134° |
| 2026-05-07 19:49 | -43.48561 | 172.52982 | 111 ft | 0 kts | 130° |
| 2026-05-07 19:51 | -43.48564 | 172.52988 | 111 ft | 3 kts | 130° |
| 2026-05-07 19:52 | -43.48589 | 172.53030 | 111 ft | 8 kts | 101° |
| 2026-05-07 19:52 | -43.48478 | 172.53177 | 110 ft | 47 kts | 39° |
| 2026-05-07 19:52 | -43.48150 | 172.53572 | 230 ft | 67 kts | 38° |
| 2026-05-07 19:52 | -43.47804 | 172.53992 | 462 ft | 66 kts | 32° |
| 2026-05-07 19:53 | -43.47413 | 172.54257 | 666 ft | 67 kts | 22° |
| 2026-05-07 19:53 | -43.46998 | 172.54515 | 901 ft | 65 kts | 23° |
| 2026-05-07 19:53 | -43.46570 | 172.54849 | 1045 ft | 75 kts | 31° |
| 2026-05-07 19:53 | -43.46178 | 172.55325 | 1238 ft | 78 kts | 38° |
| 2026-05-07 19:54 | -43.45768 | 172.55748 | 1490 ft | 70 kts | 31° |
| 2026-05-07 19:54 | -43.45399 | 172.56149 | 1723 ft | 68 kts | 32° |
| 2026-05-07 19:54 | -43.45041 | 172.56567 | 1945 ft | 66 kts | 33° |
| 2026-05-07 19:54 | -43.44696 | 172.56982 | 2140 ft | 67 kts | 33° |
| 2026-05-07 19:55 | -43.44353 | 172.57417 | 2359 ft | 65 kts | 32° |
| 2026-05-07 19:55 | -43.44008 | 172.57787 | 2580 ft | 60 kts | 24° |
| 2026-05-07 19:55 | -43.43634 | 172.58052 | 2748 ft | 64 kts | 22° |
| 2026-05-07 19:55 | -43.43275 | 172.58420 | 2949 ft | 64 kts | 28° |
| 2026-05-07 19:56 | -43.42935 | 172.58821 | 3139 ft | 65 kts | 29° |
| 2026-05-07 19:56 | -43.42585 | 172.59239 | 3253 ft | 72 kts | 31° |
| 2026-05-07 19:56 | -43.42195 | 172.59718 | 3321 ft | 78 kts | 33° |
| 2026-05-07 19:56 | -43.41781 | 172.60255 | 3338 ft | 86 kts | 36° |
| 2026-05-07 19:57 | -43.41372 | 172.60902 | 3375 ft | 90 kts | 42° |
| 2026-05-07 19:57 | -43.40912 | 172.61525 | 3356 ft | 96 kts | 36° |
| 2026-05-07 19:57 | -43.40407 | 172.62152 | 3329 ft | 99 kts | 31° |
| 2026-05-07 19:57 | -43.39852 | 172.62705 | 3335 ft | 97 kts | 29° |
| 2026-05-07 19:58 | -43.39295 | 172.63252 | 3337 ft | 98 kts | 31° |
| 2026-05-07 19:58 | -43.38741 | 172.63840 | 3293 ft | 102 kts | 34° |
| 2026-05-07 19:58 | -43.38214 | 172.64482 | 3319 ft | 101 kts | 43° |
| 2026-05-07 19:58 | -43.37871 | 172.65353 | 3340 ft | 106 kts | 60° |
| 2026-05-07 19:59 | -43.37611 | 172.66324 | 3314 ft | 109 kts | 60° |
| 2026-05-07 19:59 | -43.37271 | 172.67256 | 3298 ft | 106 kts | 49° |
| 2026-05-07 19:59 | -43.36792 | 172.68007 | 3181 ft | 105 kts | 33° |
| 2026-05-07 19:59 | -43.36203 | 172.68611 | 3027 ft | 105 kts | 28° |
| 2026-05-07 20:00 | -43.35600 | 172.69157 | 2906 ft | 104 kts | 26° |
| 2026-05-07 20:00 | -43.34958 | 172.69647 | 2711 ft | 106 kts | 22° |
| 2026-05-07 20:00 | -43.34291 | 172.70067 | 2543 ft | 106 kts | 20° |
| 2026-05-07 20:00 | -43.33626 | 172.70505 | 2455 ft | 100 kts | 24° |
| 2026-05-07 20:01 | -43.32995 | 172.70886 | 2335 ft | 100 kts | 16° |
| 2026-05-07 20:01 | -43.32353 | 172.71190 | 2286 ft | 94 kts | 15° |
| 2026-05-07 20:01 | -43.31738 | 172.71474 | 2247 ft | 93 kts | 15° |
| 2026-05-07 20:01 | -43.31123 | 172.71770 | 2226 ft | 92 kts | 15° |
| 2026-05-07 20:02 | -43.30513 | 172.72061 | 2210 ft | 93 kts | 14° |
| 2026-05-07 20:02 | -43.29905 | 172.72334 | 2223 ft | 92 kts | 14° |
| 2026-05-07 20:02 | -43.29294 | 172.72615 | 2236 ft | 92 kts | 15° |
| 2026-05-07 20:02 | -43.28698 | 172.72894 | 2273 ft | 90 kts | 14° |
| 2026-05-07 20:03 | -43.28104 | 172.73178 | 2293 ft | 91 kts | 15° |
| 2026-05-07 20:03 | -43.27502 | 172.73469 | 2329 ft | 90 kts | 15° |
| 2026-05-07 20:03 | -43.26933 | 172.73791 | 2371 ft | 90 kts | 19° |
| 2026-05-07 20:03 | -43.26342 | 172.74185 | 2316 ft | 97 kts | 24° |
| 2026-05-07 20:04 | -43.25747 | 172.74652 | 2299 ft | 98 kts | 25° |
| 2026-05-07 20:04 | -43.25167 | 172.75117 | 2350 ft | 94 kts | 27° |
| 2026-05-07 20:04 | -43.24614 | 172.75607 | 2346 ft | 96 kts | 27° |
| 2026-05-07 20:04 | -43.24054 | 172.76134 | 2329 ft | 98 kts | 30° |
| 2026-05-07 20:05 | -43.23510 | 172.76700 | 2324 ft | 100 kts | 31° |
| 2026-05-07 20:05 | -43.22949 | 172.77286 | 2298 ft | 101 kts | 32° |
| 2026-05-07 20:05 | -43.22403 | 172.77867 | 2334 ft | 97 kts | 31° |
| 2026-05-07 20:05 | -43.21859 | 172.78429 | 2327 ft | 99 kts | 31° |
| 2026-05-07 20:06 | -43.21314 | 172.79015 | 2333 ft | 99 kts | 32° |
| 2026-05-07 20:06 | -43.20786 | 172.79604 | 2354 ft | 97 kts | 33° |
| 2026-05-07 20:06 | -43.20284 | 172.80209 | 2378 ft | 98 kts | 37° |
| 2026-05-07 20:06 | -43.19783 | 172.80885 | 2312 ft | 103 kts | 38° |
| 2026-05-07 20:07 | -43.19294 | 172.81583 | 2327 ft | 99 kts | 40° |
| 2026-05-07 20:07 | -43.18840 | 172.82346 | 2317 ft | 102 kts | 46° |
| 2026-05-07 20:07 | -43.18450 | 172.83151 | 2296 ft | 105 kts | 52° |
| 2026-05-07 20:07 | -43.18098 | 172.84018 | 2334 ft | 101 kts | 52° |
| 2026-05-07 20:08 | -43.17734 | 172.84860 | 2324 ft | 103 kts | 51° |
| 2026-05-07 20:08 | -43.17371 | 172.85727 | 2298 ft | 106 kts | 52° |
| 2026-05-07 20:08 | -43.17000 | 172.86600 | 2319 ft | 104 kts | 51° |
| 2026-05-07 20:08 | -43.16627 | 172.87462 | 2283 ft | 106 kts | 50° |
| 2026-05-07 20:09 | -43.16254 | 172.88325 | 2291 ft | 104 kts | 52° |
| 2026-05-07 20:09 | -43.15906 | 172.89200 | 2280 ft | 106 kts | 54° |
| 2026-05-07 20:09 | -43.15578 | 172.90096 | 2277 ft | 105 kts | 54° |
| 2026-05-07 20:10 | -43.14898 | 172.91806 | 2560 ft | 100 kts | 49° |
| 2026-05-07 20:10 | -43.14537 | 172.92618 | 2698 ft | 99 kts | 49° |
| 2026-05-07 20:10 | -43.14216 | 172.93384 | 2972 ft | 87 kts | 49° |
| 2026-05-07 20:10 | -43.13940 | 172.94089 | 3204 ft | 81 kts | 46° |
| 2026-05-07 20:11 | -43.13644 | 172.94781 | 3281 ft | 92 kts | 46° |
| 2026-05-07 20:11 | -43.13279 | 172.95519 | 3380 ft | 97 kts | 43° |
| 2026-05-07 20:11 | -43.12836 | 172.96327 | 3346 ft | 111 kts | 43° |
| 2026-05-07 20:11 | -43.12367 | 172.97189 | 3358 ft | 115 kts | 44° |
| 2026-05-07 20:12 | -43.11881 | 172.98088 | 3339 ft | 118 kts | 42° |
| 2026-05-07 20:12 | -43.11399 | 172.98959 | 3335 ft | 110 kts | 43° |
| 2026-05-07 20:12 | -43.10955 | 172.99794 | 3280 ft | 105 kts | 44° |
| 2026-05-07 20:12 | -43.10537 | 173.00594 | 3281 ft | 101 kts | 44° |
| 2026-05-07 20:13 | -43.10138 | 173.01387 | 3279 ft | 100 kts | 44° |
| 2026-05-07 20:13 | -43.09752 | 173.02184 | 3257 ft | 104 kts | 45° |
| 2026-05-07 20:13 | -43.09354 | 173.02998 | 3279 ft | 103 kts | 45° |
| 2026-05-07 20:13 | -43.08952 | 173.03815 | 3297 ft | 103 kts | 45° |
| 2026-05-07 20:14 | -43.08544 | 173.04627 | 3305 ft | 104 kts | 45° |
| 2026-05-07 20:14 | -43.08144 | 173.05452 | 3325 ft | 104 kts | 45° |
| 2026-05-07 20:14 | -43.07735 | 173.06290 | 3290 ft | 107 kts | 46° |
| 2026-05-07 20:14 | -43.07341 | 173.07118 | 3344 ft | 101 kts | 44° |
| 2026-05-07 20:15 | -43.06933 | 173.07916 | 3349 ft | 102 kts | 43° |
| 2026-05-07 20:15 | -43.06495 | 173.08666 | 3352 ft | 101 kts | 37° |
| 2026-05-07 20:15 | -43.06021 | 173.09375 | 3365 ft | 101 kts | 38° |
| 2026-05-07 20:15 | -43.05563 | 173.10129 | 3365 ft | 103 kts | 40° |
| 2026-05-07 20:16 | -43.05123 | 173.10924 | 3375 ft | 105 kts | 44° |
| 2026-05-07 20:16 | -43.04719 | 173.11780 | 3309 ft | 112 kts | 47° |
| 2026-05-07 20:16 | -43.04317 | 173.12688 | 3305 ft | 110 kts | 49° |
| 2026-05-07 20:16 | -43.03919 | 173.13597 | 3287 ft | 110 kts | 50° |
| 2026-05-07 20:17 | -43.03532 | 173.14488 | 3279 ft | 109 kts | 50° |
| 2026-05-07 20:17 | -43.03139 | 173.15389 | 3250 ft | 109 kts | 47° |
| 2026-05-07 20:17 | -43.02715 | 173.16234 | 3250 ft | 107 kts | 46° |
| 2026-05-07 20:17 | -43.02293 | 173.17090 | 3217 ft | 108 kts | 46° |
| 2026-05-07 20:18 | -43.01867 | 173.17914 | 3231 ft | 104 kts | 42° |
| 2026-05-07 20:18 | -43.01415 | 173.18692 | 3210 ft | 106 kts | 40° |
| 2026-05-07 20:18 | -43.00921 | 173.19431 | 3241 ft | 102 kts | 38° |
| 2026-05-07 20:18 | -43.00459 | 173.20143 | 3300 ft | 100 kts | 38° |
| 2026-05-07 20:19 | -42.99980 | 173.20869 | 3304 ft | 103 kts | 37° |
| 2026-05-07 20:19 | -42.99504 | 173.21597 | 3326 ft | 103 kts | 37° |
| 2026-05-07 20:19 | -42.99018 | 173.22328 | 3341 ft | 103 kts | 38° |
| 2026-05-07 20:19 | -42.98542 | 173.23039 | 3385 ft | 100 kts | 37° |
| 2026-05-07 20:20 | -42.98044 | 173.23717 | 3398 ft | 101 kts | 33° |
| 2026-05-07 20:20 | -42.97705 | 173.24156 | 3392 ft | 102 kts | 33° |
| 2026-05-07 20:20 | -42.96993 | 173.25030 | 3362 ft | 104 kts | 32° |
| 2026-05-07 20:20 | -42.96457 | 173.25694 | 3377 ft | 102 kts | 34° |
| 2026-05-07 20:21 | -42.95926 | 173.26379 | 3340 ft | 105 kts | 35° |
| 2026-05-07 20:21 | -42.95409 | 173.27068 | 3322 ft | 105 kts | 35° |
| 2026-05-07 20:21 | -42.94873 | 173.27762 | 3305 ft | 105 kts | 34° |
| 2026-05-07 20:21 | -42.94324 | 173.28409 | 3289 ft | 104 kts | 30° |
| 2026-05-07 20:22 | -42.93747 | 173.28986 | 3296 ft | 102 kts | 26° |
| 2026-05-07 20:22 | -42.93161 | 173.29540 | 3283 ft | 103 kts | 26° |
| 2026-05-07 20:22 | -42.92578 | 173.30101 | 3264 ft | 103 kts | 27° |
| 2026-05-07 20:22 | -42.92001 | 173.30662 | 3278 ft | 101 kts | 27° |
| 2026-05-07 20:23 | -42.91425 | 173.31223 | 3271 ft | 101 kts | 27° |
| 2026-05-07 20:23 | -42.90847 | 173.31798 | 3270 ft | 102 kts | 27° |
| 2026-05-07 20:23 | -42.90274 | 173.32340 | 3286 ft | 100 kts | 27° |
| 2026-05-07 20:23 | -42.89691 | 173.32851 | 3311 ft | 98 kts | 21° |
| 2026-05-07 20:24 | -42.89091 | 173.33318 | 3320 ft | 98 kts | 21° |
| 2026-05-07 20:24 | -42.88497 | 173.33784 | 3331 ft | 99 kts | 22° |
| 2026-05-07 20:24 | -42.87910 | 173.34274 | 3335 ft | 100 kts | 24° |
| 2026-05-07 20:24 | -42.87309 | 173.34784 | 3335 ft | 101 kts | 24° |
| 2026-05-07 20:25 | -42.86700 | 173.35294 | 3352 ft | 100 kts | 24° |
| 2026-05-07 20:25 | -42.86098 | 173.35803 | 3363 ft | 100 kts | 24° |
| 2026-05-07 20:25 | -42.85502 | 173.36295 | 3368 ft | 101 kts | 24° |
| 2026-05-07 20:25 | -42.84927 | 173.36850 | 3392 ft | 101 kts | 31° |
| 2026-05-07 20:26 | -42.84430 | 173.37541 | 3390 ft | 105 kts | 42° |
| 2026-05-07 20:26 | -42.83915 | 173.38260 | 3364 ft | 103 kts | 31° |
| 2026-05-07 20:26 | -42.83349 | 173.38788 | 3418 ft | 97 kts | 23° |
| 2026-05-07 20:26 | -42.82731 | 173.39235 | 3373 ft | 100 kts | 18° |
| 2026-05-07 20:27 | -42.82078 | 173.39635 | 3320 ft | 103 kts | 18° |
| 2026-05-07 20:27 | -42.81437 | 173.40051 | 3382 ft | 96 kts | 20° |
| 2026-05-07 20:27 | -42.80849 | 173.40488 | 3379 ft | 99 kts | 20° |
| 2026-05-07 20:27 | -42.80221 | 173.40926 | 3368 ft | 100 kts | 21° |
| 2026-05-07 20:28 | -42.79584 | 173.41368 | 3339 ft | 101 kts | 19° |
| 2026-05-07 20:28 | -42.78962 | 173.41766 | 3408 ft | 96 kts | 18° |
| 2026-05-07 20:28 | -42.78326 | 173.42156 | 3375 ft | 100 kts | 17° |
| 2026-05-07 20:28 | -42.77699 | 173.42525 | 3417 ft | 96 kts | 16° |
| 2026-05-07 20:29 | -42.77082 | 173.42917 | 3406 ft | 99 kts | 20° |
| 2026-05-07 20:29 | -42.76490 | 173.43414 | 3411 ft | 99 kts | 22° |
| 2026-05-07 20:29 | -42.75859 | 173.43822 | 3407 ft | 98 kts | 16° |
| 2026-05-07 20:29 | -42.75226 | 173.44170 | 3403 ft | 98 kts | 15° |
| 2026-05-07 20:30 | -42.74578 | 173.44536 | 3374 ft | 100 kts | 17° |
| 2026-05-07 20:30 | -42.73951 | 173.44926 | 3390 ft | 99 kts | 18° |
| 2026-05-07 20:30 | -42.73318 | 173.45319 | 3413 ft | 97 kts | 20° |
| 2026-05-07 20:30 | -42.72711 | 173.45758 | 3398 ft | 101 kts | 21° |
| 2026-05-07 20:31 | -42.72113 | 173.46286 | 3386 ft | 102 kts | 25° |
| 2026-05-07 20:31 | -42.71483 | 173.46725 | 3376 ft | 101 kts | 15° |
| 2026-05-07 20:31 | -42.70839 | 173.47049 | 3430 ft | 95 kts | 14° |
| 2026-05-07 20:31 | -42.70208 | 173.47360 | 3408 ft | 98 kts | 13° |
| 2026-05-07 20:32 | -42.69549 | 173.47635 | 3320 ft | 103 kts | 10° |
| 2026-05-07 20:32 | -42.68835 | 173.47908 | 3197 ft | 107 kts | 11° |
| 2026-05-07 20:32 | -42.68135 | 173.48169 | 3206 ft | 100 kts | 11° |
| 2026-05-07 20:32 | -42.67506 | 173.48456 | 3276 ft | 94 kts | 14° |
| 2026-05-07 20:33 | -42.66881 | 173.48781 | 3280 ft | 96 kts | 15° |
| 2026-05-07 20:33 | -42.66266 | 173.49123 | 3308 ft | 95 kts | 16° |
| 2026-05-07 20:33 | -42.65651 | 173.49493 | 3316 ft | 97 kts | 18° |
| 2026-05-07 20:33 | -42.65042 | 173.49890 | 3330 ft | 98 kts | 19° |
| 2026-05-07 20:34 | -42.64432 | 173.50305 | 3343 ft | 98 kts | 19° |
| 2026-05-07 20:34 | -42.63818 | 173.50719 | 3349 ft | 98 kts | 19° |
| 2026-05-07 20:34 | -42.63195 | 173.51158 | 3362 ft | 98 kts | 22° |
| 2026-05-07 20:34 | -42.62616 | 173.51639 | 3384 ft | 98 kts | 24° |
| 2026-05-07 20:35 | -42.62004 | 173.52109 | 3365 ft | 99 kts | 21° |
| 2026-05-07 20:35 | -42.61400 | 173.52548 | 3374 ft | 98 kts | 22° |
| 2026-05-07 20:35 | -42.60810 | 173.53000 | 3389 ft | 97 kts | 21° |
| 2026-05-07 20:35 | -42.60202 | 173.53439 | 3380 ft | 98 kts | 20° |
| 2026-05-07 20:36 | -42.59594 | 173.53836 | 3387 ft | 98 kts | 18° |
| 2026-05-07 20:36 | -42.58958 | 173.54246 | 3341 ft | 100 kts | 18° |
| 2026-05-07 20:36 | -42.58342 | 173.54633 | 3395 ft | 95 kts | 19° |
| 2026-05-07 20:36 | -42.57744 | 173.55066 | 3387 ft | 98 kts | 22° |
| 2026-05-07 20:37 | -42.57153 | 173.55519 | 3400 ft | 97 kts | 21° |
| 2026-05-07 20:37 | -42.56548 | 173.55965 | 3395 ft | 98 kts | 24° |
| 2026-05-07 20:37 | -42.55966 | 173.56436 | 3424 ft | 95 kts | 22° |
| 2026-05-07 20:37 | -42.55380 | 173.56854 | 3414 ft | 97 kts | 20° |
| 2026-05-07 20:38 | -42.54779 | 173.57280 | 3431 ft | 96 kts | 20° |
| 2026-05-07 20:38 | -42.54190 | 173.57709 | 3454 ft | 96 kts | 22° |
| 2026-05-07 20:38 | -42.53605 | 173.58170 | 3456 ft | 95 kts | 22° |
| 2026-05-07 20:38 | -42.53031 | 173.58620 | 3469 ft | 96 kts | 23° |
| 2026-05-07 20:39 | -42.52452 | 173.59084 | 3473 ft | 96 kts | 21° |
| 2026-05-07 20:39 | -42.51874 | 173.59552 | 3478 ft | 98 kts | 24° |
| 2026-05-07 20:39 | -42.51306 | 173.60094 | 3459 ft | 100 kts | 27° |
| 2026-05-07 20:39 | -42.50705 | 173.60597 | 3418 ft | 100 kts | 22° |
| 2026-05-07 20:40 | -42.50102 | 173.61058 | 3327 ft | 103 kts | 24° |
| 2026-05-07 20:40 | -42.49488 | 173.61562 | 3179 ft | 101 kts | 26° |
| 2026-05-07 20:40 | -42.48911 | 173.62087 | 2942 ft | 100 kts | 29° |
| 2026-05-07 20:40 | -42.48341 | 173.62689 | 2519 ft | 107 kts | 33° |
| 2026-05-07 20:41 | -42.47772 | 173.63298 | 2178 ft | 101 kts | 34° |
| 2026-05-07 20:41 | -42.47207 | 173.63818 | 1866 ft | 95 kts | 27° |
| 2026-05-07 20:41 | -42.46652 | 173.64169 | 1671 ft | 87 kts | 20° |
| 2026-05-07 20:41 | -42.46096 | 173.64476 | 1482 ft | 81 kts | 19° |
| 2026-05-07 20:42 | -42.45556 | 173.64717 | 1469 ft | 78 kts | 13° |
| 2026-05-07 20:42 | -42.45032 | 173.64771 | 1487 ft | 77 kts | 349° |
| 2026-05-07 20:42 | -42.44621 | 173.64294 | 1509 ft | 80 kts | 317° |
| 2026-05-07 20:42 | -42.44240 | 173.63756 | 1549 ft | 73 kts | 331° |
| 2026-05-07 20:43 | -42.43816 | 173.63228 | 1373 ft | 96 kts | 319° |
| 2026-05-07 20:43 | -42.43406 | 173.62508 | 1363 ft | 95 kts | 316° |
| 2026-05-07 20:43 | -42.42935 | 173.61842 | 1334 ft | 95 kts | 329° |
| 2026-05-07 20:43 | -42.42434 | 173.61353 | 1394 ft | 80 kts | 335° |
| 2026-05-07 20:44 | -42.42038 | 173.60878 | 1269 ft | 78 kts | 312° |
| 2026-05-07 20:44 | -42.41967 | 173.60098 | 1017 ft | 92 kts | 269° |
| 2026-05-07 20:44 | -42.42194 | 173.59285 | 779 ft | 92 kts | 257° |
| 2026-05-07 20:44 | -42.42495 | 173.58525 | 651 ft | 99 kts | 229° |
| 2026-05-07 20:45 | -42.43155 | 173.58395 | 565 ft | 99 kts | 139° |
| 2026-05-07 20:45 | -42.43492 | 173.59094 | 760 ft | 86 kts | 105° |
| 2026-05-07 20:45 | -42.43778 | 173.59810 | 971 ft | 87 kts | 104° |
| 2026-05-07 20:45 | -42.44069 | 173.60539 | 1174 ft | 90 kts | 103° |
| 2026-05-07 20:46 | -42.44370 | 173.61290 | 1390 ft | 90 kts | 103° |
| 2026-05-07 20:46 | -42.44637 | 173.62099 | 1552 ft | 95 kts | 108° |
| 2026-05-07 20:46 | -42.45104 | 173.62862 | 1570 ft | 110 kts | 136° |
| 2026-05-07 20:46 | -42.45829 | 173.63208 | 1537 ft | 117 kts | 177° |
| 2026-05-07 20:47 | -42.46567 | 173.62808 | 1482 ft | 109 kts | 237° |
| 2026-05-07 20:47 | -42.46678 | 173.61914 | 1374 ft | 92 kts | 307° |
| 2026-05-07 20:47 | -42.46238 | 173.61409 | 1382 ft | 78 kts | 335° |
| 2026-05-07 20:47 | -42.45792 | 173.61009 | 1452 ft | 73 kts | 334° |
| 2026-05-07 20:48 | -42.45382 | 173.60638 | 1494 ft | 74 kts | 336° |
| 2026-05-07 20:48 | -42.44910 | 173.60300 | 1466 ft | 82 kts | 341° |
| 2026-05-07 20:48 | -42.44350 | 173.59972 | 1427 ft | 89 kts | 343° |
| 2026-05-07 20:48 | -42.43774 | 173.59648 | 1429 ft | 91 kts | 343° |
| 2026-05-07 20:49 | -42.43166 | 173.59357 | 1398 ft | 91 kts | 348° |
| 2026-05-07 20:49 | -42.42566 | 173.59204 | 1372 ft | 81 kts | 4° |
| 2026-05-07 20:49 | -42.42052 | 173.59454 | 1445 ft | 83 kts | 31° |
| 2026-05-07 20:49 | -42.41727 | 173.60133 | 1495 ft | 94 kts | 66° |
| 2026-05-07 20:50 | -42.41827 | 173.61087 | 1499 ft | 113 kts | 109° |
| 2026-05-07 20:50 | -42.42439 | 173.61870 | 1317 ft | 128 kts | 149° |
| 2026-05-07 20:50 | -42.43226 | 173.61891 | 1217 ft | 107 kts | 212° |
| 2026-05-07 20:50 | -42.43675 | 173.61160 | 965 ft | 98 kts | 250° |
| 2026-05-07 20:51 | -42.43992 | 173.60330 | 714 ft | 94 kts | 256° |
| 2026-05-07 20:51 | -42.44019 | 173.59561 | 613 ft | 83 kts | 311° |
| 2026-05-07 20:51 | -42.43555 | 173.59152 | 444 ft | 75 kts | 348° |
| 2026-05-07 20:51 | -42.43127 | 173.59035 | 354 ft | 55 kts | 25° |
| 2026-05-07 20:52 | -42.42874 | 173.59374 | 211 ft | 51 kts | 51° |
| 2026-05-07 20:52 | -42.42710 | 173.59805 | 110 ft | 53 kts | 56° |
| 2026-05-07 20:52 | -42.42571 | 173.60219 | 47 ft | 36 kts | 69° |
| 2026-05-07 20:52 | -42.42503 | 173.60439 | 45 ft | 17 kts | 70° |
| 2026-05-07 20:53 | -42.42476 | 173.60515 | 46 ft | 2 kts | 323° |
| 2026-05-07 20:53 | -42.42500 | 173.60445 | 45 ft | 12 kts | 246° |
| 2026-05-07 20:53 | -42.42533 | 173.60344 | 46 ft | 15 kts | 244° |
| 2026-05-07 20:53 | -42.42565 | 173.60239 | 47 ft | 10 kts | 243° |
| 2026-05-07 20:54 | -42.42593 | 173.60153 | 47 ft | 9 kts | 242° |
| 2026-05-07 20:54 | -42.42606 | 173.60106 | 47 ft | 2 kts | 278° |
| 2026-05-07 20:54 | -42.42582 | 173.60077 | 47 ft | 3 kts | 281° |
| 2026-05-07 20:54 | -42.42589 | 173.60037 | 47 ft | 0 kts | 252° |
| 2026-05-07 20:55 | -42.42593 | 173.60023 | 47 ft | 0 kts | 252° |
| 2026-05-07 20:55 | -42.42595 | 173.60010 | 47 ft | 3 kts | 263° |
| 2026-05-07 20:55 | -42.42621 | 173.59976 | 47 ft | 4 kts | 249° |
| 2026-05-07 20:56 | -42.42621 | 173.59950 | 47 ft | 3 kts | 3° |
| 2026-05-07 20:56 | -42.42621 | 173.59963 | 47 ft | 2 kts | 128° |
| 2026-05-07 20:56 | -42.42627 | 173.59972 | 47 ft | 0 kts | 70° |